createdAt,value
2018-06-22T00:01:52.144Z,20.42
2018-06-22T00:04:22.845Z,20.29
2018-06-22T00:06:53.584Z,20.37
2018-06-22T00:09:24.453Z,20.33
2018-06-22T00:11:55.356Z,20.30
2018-06-22T00:14:26.110Z,20.35
2018-06-22T00:16:56.110Z,20.22
2018-06-22T00:19:26.845Z,20.16
2018-06-22T00:21:57.768Z,20.23
2018-06-22T00:24:27.799Z,20.11
2018-06-22T00:26:58.621Z,19.97
2018-06-22T00:29:29.527Z,20.16
2018-06-22T00:32:00.152Z,20.16
2018-06-22T00:34:30.828Z,20.03
2018-06-22T00:37:01.936Z,20.00
2018-06-22T00:39:32.484Z,19.83
2018-06-22T00:42:03.393Z,19.72
2018-06-22T00:44:33.774Z,19.77
2018-06-22T00:47:04.669Z,19.72
2018-06-22T00:49:35.613Z,19.77
2018-06-22T00:52:06.799Z,19.79
2018-06-22T00:54:37.809Z,19.79
2018-06-22T00:57:08.219Z,19.75
2018-06-22T00:59:38.282Z,19.78
2018-06-22T01:02:08.844Z,19.81
2018-06-22T01:04:39.709Z,19.85
2018-06-22T01:07:10.523Z,20.02
2018-06-22T01:09:41.142Z,19.93
2018-06-22T01:12:11.963Z,19.83
2018-06-22T01:14:42.605Z,19.70
2018-06-22T01:17:13.097Z,19.76
2018-06-22T01:19:43.927Z,19.79
2018-06-22T01:22:14.731Z,19.77
2018-06-22T01:24:45.625Z,19.69
2018-06-22T01:27:16.422Z,19.69
2018-06-22T01:29:47.029Z,19.58
2018-06-22T01:32:18.232Z,19.55
2018-06-22T01:34:48.287Z,19.49
2018-06-22T01:37:19.468Z,19.18
2018-06-22T01:39:50.230Z,19.01
2018-06-22T01:42:20.846Z,19.09
2018-06-22T01:44:51.484Z,19.34
2018-06-22T01:47:22.254Z,19.50
2018-06-22T01:49:53.033Z,19.47
2018-06-22T01:52:23.815Z,19.45
2018-06-22T01:54:54.425Z,19.37
2018-06-22T01:57:24.977Z,19.55
2018-06-22T01:59:55.637Z,19.39
2018-06-22T02:02:27.068Z,19.17
2018-06-22T02:04:58.006Z,19.13
2018-06-22T02:07:28.590Z,19.05
2018-06-22T02:09:59.576Z,19.07
2018-06-22T02:12:29.886Z,19.12
2018-06-22T02:15:00.678Z,19.23
2018-06-22T02:17:31.417Z,19.30
2018-06-22T02:20:02.271Z,19.36
2018-06-22T02:22:32.628Z,19.51
2018-06-22T02:25:03.215Z,19.51
2018-06-22T02:27:33.549Z,19.35
2018-06-22T02:30:04.292Z,19.24
2018-06-22T02:32:34.964Z,18.94
2018-06-22T02:35:05.488Z,18.87
2018-06-22T02:37:35.889Z,18.99
2018-06-22T02:40:06.376Z,19.02
2018-06-22T02:42:36.804Z,18.78
2018-06-22T02:45:07.465Z,18.83
2018-06-22T02:47:37.993Z,19.03
2018-06-22T02:50:08.521Z,19.10
2018-06-22T02:52:38.756Z,19.15
2018-06-22T02:55:09.249Z,19.18
2018-06-22T02:57:39.904Z,19.37
2018-06-22T03:00:10.911Z,19.12
2018-06-22T03:02:41.530Z,19.24
2018-06-22T03:05:12.370Z,19.20
2018-06-22T03:07:43.736Z,19.27
2018-06-22T03:10:14.983Z,19.39
2018-06-22T03:12:46.461Z,19.50
2018-06-22T03:15:17.981Z,19.37
2018-06-22T03:17:49.002Z,19.35
2018-06-22T03:20:20.074Z,19.18
2018-06-22T03:22:51.074Z,19.26
2018-06-22T03:25:21.787Z,19.17
2018-06-22T03:27:52.477Z,19.20
2018-06-22T03:30:23.301Z,19.51
2018-06-22T03:32:54.065Z,19.49
2018-06-22T03:35:24.826Z,19.49
2018-06-22T03:37:55.973Z,19.59
2018-06-22T03:40:26.752Z,19.65
2018-06-22T03:42:57.639Z,19.71
2018-06-22T03:45:28.864Z,19.76
2018-06-22T03:48:00.150Z,19.67
2018-06-22T03:50:30.419Z,19.59
2018-06-22T03:53:00.974Z,19.64
2018-06-22T03:55:31.877Z,19.73
2018-06-22T03:58:03.686Z,19.82
2018-06-22T04:00:34.160Z,19.84
2018-06-22T04:03:05.964Z,19.88
2018-06-22T04:05:36.419Z,19.91
2018-06-22T04:08:06.831Z,19.88
2018-06-22T04:10:38.358Z,20.00
2018-06-22T04:13:09.019Z,19.99
2018-06-22T04:15:39.713Z,20.02
2018-06-22T04:18:09.458Z,20.09
2018-06-22T04:20:39.234Z,20.16
2018-06-22T04:23:09.224Z,20.41
2018-06-22T04:25:39.107Z,20.59
2018-06-22T04:28:09.034Z,20.69
2018-06-22T04:30:38.982Z,20.81
2018-06-22T04:33:09.006Z,20.83
2018-06-22T04:35:39.258Z,20.83
2018-06-22T04:38:09.050Z,20.92
2018-06-22T04:40:38.808Z,20.92
2018-06-22T04:43:08.843Z,21.06
2018-06-22T04:45:38.829Z,21.07
2018-06-22T04:48:08.618Z,21.19
2018-06-22T04:50:38.554Z,21.34
2018-06-22T04:53:08.557Z,21.43
2018-06-22T04:55:38.525Z,21.54
2018-06-22T04:58:08.371Z,21.72
2018-06-22T05:00:38.148Z,21.92
2018-06-22T05:03:08.073Z,21.94
2018-06-22T05:05:38.086Z,22.15
2018-06-22T05:08:08.156Z,22.19
2018-06-22T05:10:38.091Z,22.40
2018-06-22T05:13:07.974Z,22.56
2018-06-22T05:15:37.976Z,22.73
2018-06-22T05:18:07.801Z,22.88
2018-06-22T05:20:37.624Z,22.99
2018-06-22T05:23:07.931Z,23.31
2018-06-22T05:25:37.975Z,23.43
2018-06-22T05:28:07.836Z,23.73
2018-06-22T05:30:37.846Z,23.89
2018-06-22T05:33:07.692Z,24.09
2018-06-22T05:35:37.675Z,24.24
2018-06-22T05:38:07.863Z,24.13
2018-06-22T05:40:37.568Z,24.27
2018-06-22T05:43:07.568Z,24.37
2018-06-22T05:45:37.428Z,24.55
2018-06-22T05:48:07.219Z,24.71
2018-06-22T05:50:37.168Z,24.86
2018-06-22T05:53:07.172Z,24.92
2018-06-22T05:55:37.107Z,25.00
2018-06-22T05:58:07.003Z,25.25
2018-06-22T06:00:36.899Z,25.29
2018-06-22T06:03:06.863Z,25.37
2018-06-22T06:05:36.983Z,25.40
2018-06-22T06:08:07.018Z,25.34
2018-06-22T06:10:37.055Z,25.46
2018-06-22T06:13:07.003Z,25.63
2018-06-22T06:15:37.205Z,25.83
2018-06-22T06:18:07.137Z,26.11
2018-06-22T06:20:36.884Z,26.28
2018-06-22T06:23:07.007Z,26.17
2018-06-22T06:25:36.989Z,26.25
2018-06-22T06:28:07.033Z,26.13
2018-06-22T06:30:36.940Z,26.26
2018-06-22T06:33:06.957Z,26.23
2018-06-22T06:35:36.830Z,26.21
2018-06-22T06:38:06.823Z,26.33
2018-06-22T06:40:36.691Z,26.52
2018-06-22T06:43:06.694Z,26.77
2018-06-22T06:45:36.911Z,26.80
2018-06-22T06:48:06.907Z,26.88
2018-06-22T06:50:36.842Z,27.07
2018-06-22T06:53:06.927Z,27.11
2018-06-22T06:55:36.831Z,27.34
2018-06-22T06:58:06.696Z,27.57
2018-06-22T07:00:36.640Z,27.76
2018-06-22T07:03:06.852Z,27.62
2018-06-22T07:05:36.879Z,27.76
2018-06-22T07:08:07.095Z,28.07
2018-06-22T07:10:37.210Z,28.19
2018-06-22T07:13:07.118Z,28.36
2018-06-22T07:15:40.921Z,28.39
2018-06-22T07:18:11.076Z,28.55
2018-06-22T07:20:41.078Z,28.74
2018-06-22T07:23:10.898Z,28.88
2018-06-22T07:25:40.769Z,29.17
2018-06-22T07:28:10.772Z,29.13
2018-06-22T07:30:40.578Z,29.48
2018-06-22T07:33:11.539Z,29.81
2018-06-22T07:35:41.323Z,29.97
2018-06-22T07:38:11.195Z,30.01
2018-06-22T07:40:41.321Z,29.92
2018-06-22T07:43:11.203Z,30.22
2018-06-22T07:45:41.125Z,30.18
2018-06-22T07:48:10.933Z,30.34
2018-06-22T07:50:40.799Z,30.39
2018-06-22T07:53:10.762Z,30.56
2018-06-22T07:55:40.579Z,30.99
2018-06-22T07:58:10.380Z,31.44
2018-06-22T08:00:40.254Z,31.25
2018-06-22T08:03:10.185Z,31.03
2018-06-22T08:05:40.147Z,31.25
2018-06-22T08:08:10.050Z,31.66
2018-06-22T08:10:40.653Z,31.58
2018-06-22T08:13:10.512Z,32.29
2018-06-22T08:15:40.496Z,31.77
2018-06-22T08:18:10.291Z,31.76
2018-06-22T08:20:40.122Z,31.89
2018-06-22T08:23:10.016Z,31.61
2018-06-22T08:25:40.018Z,31.98
2018-06-22T08:28:09.980Z,32.56
2018-06-22T08:30:39.912Z,32.80
2018-06-22T08:33:09.938Z,32.91
2018-06-22T08:35:39.839Z,33.04
2018-06-22T08:38:09.706Z,32.97
2018-06-22T08:40:39.496Z,33.13
2018-06-22T08:43:09.451Z,33.03
2018-06-22T08:45:39.300Z,32.51
2018-06-22T08:48:09.179Z,32.85
2018-06-22T08:50:39.145Z,33.12
2018-06-22T08:53:09.092Z,33.46
2018-06-22T08:55:39.151Z,33.51
2018-06-22T08:58:09.012Z,33.28
2018-06-22T09:00:38.852Z,33.32
2018-06-22T09:03:08.982Z,33.44
2018-06-22T09:05:38.904Z,33.35
2018-06-22T09:08:08.915Z,33.61
2018-06-22T09:10:38.896Z,33.84
2018-06-22T09:13:08.924Z,34.25
2018-06-22T09:15:38.852Z,34.03
2018-06-22T09:18:08.722Z,34.28
2018-06-22T09:20:38.528Z,34.49
2018-06-22T09:23:08.411Z,34.57
2018-06-22T09:25:38.261Z,34.10
2018-06-22T09:28:08.043Z,34.62
2018-06-22T09:30:37.963Z,35.22
2018-06-22T09:33:07.807Z,34.40
2018-06-22T09:35:37.792Z,34.33
2018-06-22T09:38:07.615Z,34.25
2018-06-22T09:40:37.403Z,34.70
2018-06-22T09:43:07.291Z,35.00
2018-06-22T09:45:37.048Z,35.10
2018-06-22T09:48:06.938Z,35.36
2018-06-22T09:50:36.760Z,34.99
2018-06-22T09:53:06.827Z,35.03
2018-06-22T09:55:36.665Z,35.37
2018-06-22T09:58:07.432Z,35.76
2018-06-22T10:00:37.253Z,36.09
2018-06-22T10:03:07.100Z,36.04
2018-06-22T10:05:36.950Z,35.54
2018-06-22T10:08:06.827Z,35.83
2018-06-22T10:10:36.641Z,36.18
2018-06-22T10:13:06.676Z,36.33
2018-06-22T10:15:36.554Z,36.61
2018-06-22T10:18:06.427Z,36.39
2018-06-22T10:20:36.271Z,36.47
2018-06-22T10:23:06.174Z,36.65
2018-06-22T10:25:36.005Z,36.56
2018-06-22T10:28:06.215Z,35.84
2018-06-22T10:30:36.059Z,36.31
2018-06-22T10:33:06.257Z,36.80
2018-06-22T10:35:36.084Z,36.81
2018-06-22T10:38:06.117Z,36.93
2018-06-22T10:40:36.320Z,37.08
2018-06-22T10:43:06.334Z,36.71
2018-06-22T10:45:36.236Z,36.70
2018-06-22T10:48:06.091Z,37.17
2018-06-22T10:50:35.900Z,37.66
2018-06-22T10:53:05.832Z,37.91
2018-06-22T10:55:35.794Z,37.99
2018-06-22T10:58:06.547Z,37.86
2018-06-22T11:00:36.410Z,37.87
2018-06-22T11:03:06.459Z,38.13
2018-06-22T11:05:36.342Z,38.16
2018-06-22T11:08:06.279Z,38.97
2018-06-22T11:10:36.182Z,38.36
2018-06-22T11:13:06.226Z,37.52
2018-06-22T11:15:36.178Z,37.43
2018-06-22T11:18:06.074Z,37.64
2018-06-22T11:20:35.923Z,38.59
2018-06-22T11:23:05.922Z,38.98
2018-06-22T11:25:35.932Z,39.11
2018-06-22T11:28:05.805Z,39.38
2018-06-22T11:30:35.735Z,39.60
2018-06-22T11:33:05.666Z,40.05
2018-06-22T11:35:35.592Z,40.25
2018-06-22T11:38:05.514Z,40.39
2018-06-22T11:40:35.516Z,40.49
2018-06-22T11:43:05.459Z,40.45
2018-06-22T11:45:35.451Z,40.14
2018-06-22T11:48:05.525Z,39.65
2018-06-22T11:50:35.645Z,39.39
2018-06-22T11:53:05.803Z,39.67
2018-06-22T11:55:35.904Z,39.93
2018-06-22T11:58:06.137Z,39.99
2018-06-22T12:00:36.030Z,38.98
2018-06-22T12:03:06.644Z,39.17
2018-06-22T12:05:36.494Z,39.29
2018-06-22T12:08:06.503Z,39.54
2018-06-22T12:10:36.331Z,39.72
2018-06-22T12:13:06.318Z,39.36
2018-06-22T12:15:36.314Z,39.81
2018-06-22T12:18:06.555Z,38.91
2018-06-22T12:20:36.496Z,38.21
2018-06-22T12:23:06.519Z,38.07
2018-06-22T12:25:36.378Z,37.91
2018-06-22T12:28:06.625Z,38.09
2018-06-22T12:30:36.536Z,38.66
2018-06-22T12:33:06.706Z,38.62
2018-06-22T12:35:36.608Z,39.19
2018-06-22T12:38:06.594Z,39.50
2018-06-22T12:40:36.470Z,39.34
2018-06-22T12:43:06.473Z,39.48
2018-06-22T12:45:36.286Z,39.38
2018-06-22T12:48:06.194Z,39.33
2018-06-22T12:50:36.115Z,39.50
2018-06-22T12:53:06.423Z,39.72
2018-06-22T12:55:36.541Z,39.38
2018-06-22T12:58:06.663Z,39.61
2018-06-22T13:00:36.645Z,39.46
2018-06-22T13:03:06.835Z,39.14
2018-06-22T13:05:36.884Z,38.82
2018-06-22T13:08:06.909Z,38.58
2018-06-22T13:10:37.098Z,38.16
2018-06-22T13:13:07.281Z,37.32
2018-06-22T13:15:37.229Z,35.21
2018-06-22T13:18:07.269Z,33.43
2018-06-22T13:20:37.403Z,32.01
2018-06-22T13:23:07.344Z,31.44
2018-06-22T13:25:37.204Z,31.08
2018-06-22T13:28:07.675Z,31.27
2018-06-22T13:30:37.869Z,32.02
2018-06-22T13:33:07.932Z,32.66
2018-06-22T13:35:37.974Z,32.79
2018-06-22T13:38:08.147Z,32.90
2018-06-22T13:40:37.998Z,32.91
2018-06-22T13:43:07.911Z,33.01
2018-06-22T13:45:37.865Z,33.14
2018-06-22T13:48:08.175Z,33.05
2018-06-22T13:50:38.377Z,32.27
2018-06-22T13:53:09.234Z,32.06
2018-06-22T13:55:39.743Z,32.18
2018-06-22T13:58:09.681Z,32.45
2018-06-22T14:00:39.750Z,32.27
2018-06-22T14:03:09.672Z,32.32
2018-06-22T14:05:44.648Z,32.55
2018-06-22T14:08:14.691Z,32.77
2018-06-22T14:10:44.681Z,32.70
2018-06-22T14:13:14.695Z,31.93
2018-06-22T14:15:44.497Z,31.19
2018-06-22T14:18:14.357Z,30.97
2018-06-22T14:20:44.605Z,30.83
2018-06-22T14:23:14.758Z,30.74
2018-06-22T14:25:44.556Z,30.84
2018-06-22T14:28:14.718Z,31.02
2018-06-22T14:30:44.774Z,31.06
2018-06-22T14:33:14.750Z,30.95
2018-06-22T14:35:44.938Z,30.88
2018-06-22T14:38:14.853Z,30.62
2018-06-22T14:40:44.699Z,30.49
2018-06-22T14:43:14.727Z,30.41
2018-06-22T14:45:44.552Z,30.21
2018-06-22T14:48:14.423Z,30.16
2018-06-22T14:50:44.346Z,30.16
2018-06-22T14:53:19.518Z,30.09
2018-06-22T14:55:54.588Z,30.02
2018-06-22T14:58:29.846Z,29.95
2018-06-22T15:02:08.480Z,29.94
2018-06-22T15:04:43.864Z,29.52
2018-06-22T15:07:18.832Z,29.40
2018-06-22T15:09:48.866Z,29.39
2018-06-22T15:12:18.660Z,29.60
2018-06-22T15:14:48.446Z,29.50
2018-06-22T15:17:18.248Z,29.66
2018-06-22T15:19:48.147Z,30.22
2018-06-22T15:22:17.931Z,30.62
2018-06-22T15:24:47.775Z,30.80
2018-06-22T15:27:17.581Z,30.84
2018-06-22T15:29:47.393Z,31.26
2018-06-22T15:32:17.287Z,31.33
2018-06-22T15:34:52.235Z,31.43
2018-06-22T15:37:27.355Z,31.56
2018-06-22T15:40:02.166Z,31.49
2018-06-22T15:42:37.009Z,31.57
2018-06-22T15:45:11.906Z,31.55
2018-06-22T15:47:46.920Z,31.39
2018-06-22T15:50:21.821Z,31.37
2018-06-22T15:52:56.876Z,31.09
2018-06-22T15:55:29.143Z,30.75
2018-06-22T15:57:58.897Z,30.22
2018-06-22T16:00:28.686Z,29.99
2018-06-22T16:03:03.698Z,29.90
2018-06-22T16:05:33.493Z,29.74
2018-06-22T16:08:03.481Z,29.50
2018-06-22T16:10:33.338Z,29.41
2018-06-22T16:13:05.809Z,29.29
2018-06-22T16:15:40.769Z,29.24
2018-06-22T16:18:15.873Z,29.05
2018-06-22T16:20:50.738Z,28.72
2018-06-22T16:23:25.577Z,28.52
2018-06-22T16:26:00.692Z,28.40
2018-06-22T16:28:30.527Z,28.22
2018-06-22T16:31:00.295Z,28.29
2018-06-22T16:33:30.137Z,28.21
2018-06-22T16:36:00.042Z,28.30
2018-06-22T16:38:29.822Z,28.31
2018-06-22T16:40:59.632Z,28.28
2018-06-22T16:43:29.462Z,28.27
2018-06-22T16:45:59.404Z,28.03
2018-06-22T16:48:29.277Z,27.82
2018-06-22T16:50:59.128Z,27.84
2018-06-22T16:53:28.919Z,27.67
2018-06-22T16:55:58.812Z,27.44
2018-06-22T16:58:33.650Z,27.22
2018-06-22T17:01:03.416Z,27.11
2018-06-22T17:03:33.297Z,26.92
2018-06-22T17:06:04.229Z,26.89
2018-06-22T17:08:39.256Z,26.77
2018-06-22T17:11:14.383Z,26.64
2018-06-22T17:13:49.414Z,26.60
2018-06-22T17:16:24.499Z,26.71
2018-06-22T17:18:56.089Z,26.79
2018-06-22T17:21:26.021Z,26.68
2018-06-22T17:23:55.773Z,26.63
2018-06-22T17:26:25.604Z,26.63
2018-06-22T17:28:55.394Z,26.64
2018-06-22T17:31:25.198Z,26.57
2018-06-22T17:33:55.381Z,26.59
2018-06-22T17:36:25.132Z,26.64
2018-06-22T17:38:54.953Z,26.71
2018-06-22T17:41:24.796Z,26.78
2018-06-22T17:43:54.640Z,26.83
2018-06-22T17:46:24.474Z,27.04
2018-06-22T17:48:54.275Z,26.84
2018-06-22T17:51:24.263Z,26.84
2018-06-22T17:53:54.039Z,26.71
2018-06-22T17:56:29.054Z,26.87
2018-06-22T17:59:04.007Z,26.95
2018-06-22T18:01:39.083Z,27.07
2018-06-22T18:04:14.349Z,26.95
2018-06-22T18:06:49.422Z,26.61
2018-06-22T18:09:24.341Z,26.41
2018-06-22T18:11:59.364Z,26.29
2018-06-22T18:14:29.213Z,26.31
2018-06-22T18:16:58.991Z,26.11
2018-06-22T18:19:28.677Z,26.06
2018-06-22T18:21:58.409Z,25.94
2018-06-22T18:24:28.215Z,25.90
2018-06-22T18:26:57.991Z,25.90
2018-06-22T18:29:28.729Z,25.73
2018-06-22T18:31:58.611Z,25.75
2018-06-22T18:34:28.420Z,25.60
2018-06-22T18:36:58.218Z,25.58
2018-06-22T18:39:28.069Z,25.48
2018-06-22T18:41:59.121Z,25.53
2018-06-22T18:44:28.977Z,25.34
2018-06-22T18:46:58.793Z,25.48
2018-06-22T18:49:28.630Z,25.30
2018-06-22T18:52:03.497Z,25.32
2018-06-22T18:54:38.366Z,25.17
2018-06-22T18:57:13.367Z,25.31
2018-06-22T18:59:47.286Z,25.20
2018-06-22T19:06:02.574Z,24.60
2018-06-22T19:08:32.417Z,24.61
2018-06-22T19:11:02.211Z,24.75
2018-06-22T19:13:32.069Z,24.83
2018-06-22T19:16:01.841Z,24.92
2018-06-22T19:18:31.690Z,24.65
2018-06-22T19:21:01.620Z,24.45
2018-06-22T19:23:31.434Z,24.37
2018-06-22T19:26:01.281Z,24.54
2018-06-22T19:28:31.228Z,24.60
2018-06-22T19:31:01.033Z,24.62
2018-06-22T19:33:30.891Z,24.69
2018-06-22T19:36:00.699Z,24.68
2018-06-22T19:38:30.488Z,24.59
2018-06-22T19:41:00.467Z,24.64
2018-06-22T19:43:35.409Z,24.54
2018-06-22T19:46:11.477Z,24.50
2018-06-22T19:48:46.454Z,24.22
2018-06-22T19:51:21.291Z,24.11
2018-06-22T19:53:59.182Z,24.02
2018-06-22T19:56:30.267Z,23.87
2018-06-22T19:59:01.192Z,23.87
2018-06-22T20:01:31.350Z,23.88
2018-06-22T20:04:01.285Z,23.85
2018-06-22T20:06:31.727Z,23.72
2018-06-22T20:09:01.739Z,23.74
2018-06-22T20:11:31.607Z,23.90
2018-06-22T20:14:02.723Z,23.81
2018-06-22T20:16:33.329Z,23.90
2018-06-22T20:19:04.206Z,23.82
2018-06-22T20:21:35.035Z,23.51
2018-06-22T20:24:06.252Z,23.36
2018-06-22T20:26:37.346Z,23.27
2018-06-22T20:29:07.499Z,23.30
2018-06-22T20:31:42.520Z,23.32
2018-06-22T20:34:19.118Z,23.16
2018-06-22T20:36:55.599Z,22.93
2018-06-22T20:39:32.951Z,22.83
2018-06-22T20:42:09.421Z,22.91
2018-06-22T20:44:45.866Z,22.94
2018-06-22T20:47:21.607Z,22.82
2018-06-22T20:49:58.592Z,22.80
2018-06-22T20:52:30.175Z,22.83
2018-06-22T20:55:00.875Z,22.81
2018-06-22T20:57:31.843Z,22.84
2018-06-22T21:00:02.853Z,22.93
2018-06-22T21:02:33.680Z,22.88
2018-06-22T21:05:05.567Z,22.70
2018-06-22T21:07:36.487Z,22.63
2018-06-22T21:10:07.564Z,22.65
2018-06-22T21:12:40.412Z,22.77
2018-06-22T21:15:09.460Z,22.85
2018-06-22T21:17:40.226Z,22.94
2018-06-22T21:20:11.010Z,22.86
2018-06-22T21:22:41.782Z,22.76
2018-06-22T21:25:12.466Z,22.73
2018-06-22T21:27:48.534Z,22.77
2018-06-22T21:30:24.678Z,22.89
2018-06-22T21:33:00.746Z,22.88
2018-06-22T21:35:37.549Z,22.99
2018-06-22T21:38:13.564Z,22.97
2018-06-22T21:40:45.019Z,22.94
2018-06-22T21:43:15.665Z,22.86
2018-06-22T21:45:46.589Z,22.79
2018-06-22T21:48:17.405Z,22.62
2018-06-22T21:50:47.561Z,22.62
2018-06-22T21:53:18.248Z,22.60
2018-06-22T21:55:48.902Z,22.67
2018-06-22T21:58:19.561Z,22.69
2018-06-22T22:00:50.531Z,22.64
2018-06-22T22:03:21.201Z,22.53
2018-06-22T22:05:51.706Z,22.38
2018-06-22T22:08:22.412Z,22.20
2018-06-22T22:10:59.260Z,22.19
2018-06-22T22:13:30.095Z,22.18
2018-06-22T22:16:01.102Z,22.18
2018-06-22T22:18:32.137Z,22.17
2018-06-22T22:21:02.695Z,22.10
2018-06-22T22:23:33.428Z,22.05
2018-06-22T22:26:04.487Z,22.03
2018-06-22T22:28:35.396Z,22.12
2018-06-22T22:31:05.384Z,22.08
2018-06-22T22:33:36.153Z,22.11
2018-06-22T22:36:07.101Z,22.21
2018-06-22T22:38:37.594Z,22.22
2018-06-22T22:41:09.096Z,22.11
2018-06-22T22:43:39.638Z,22.16
2018-06-22T22:46:10.329Z,22.17
2018-06-22T22:48:41.451Z,22.14
2018-06-22T22:51:12.314Z,22.13
2018-06-22T22:53:42.360Z,22.10
2018-06-22T22:56:13.339Z,22.14
2018-06-22T22:58:44.129Z,22.15
2018-06-22T23:01:14.831Z,22.21
2018-06-22T23:03:45.558Z,22.25
2018-06-22T23:06:16.554Z,22.27
2018-06-22T23:08:47.246Z,22.23
2018-06-22T23:11:17.840Z,22.19
2018-06-22T23:13:48.756Z,22.29
2018-06-22T23:16:19.470Z,22.25
2018-06-22T23:18:50.251Z,22.19
2018-06-22T23:21:20.736Z,22.23
2018-06-22T23:23:51.508Z,22.21
2018-06-22T23:26:22.303Z,22.13
2018-06-22T23:28:52.783Z,22.07
2018-06-22T23:31:23.816Z,22.02
2018-06-22T23:33:54.926Z,22.02
2018-06-22T23:36:25.612Z,21.98
2018-06-22T23:38:56.349Z,21.92
2018-06-22T23:41:27.002Z,21.76
2018-06-22T23:43:57.732Z,21.78
2018-06-22T23:46:28.160Z,21.73
2018-06-22T23:48:58.785Z,21.71
2018-06-22T23:51:29.521Z,21.67
2018-06-22T23:54:00.579Z,21.68
2018-06-22T23:56:31.495Z,21.60
2018-06-22T23:59:02.195Z,21.62
